Impacts TAF Board INFO
FOR SITUATIONAL AWARENESS. NOT TO BE USED FOR FLIGHT PLANNING PURPOSES.
IDs:

KCVG - Cincinnati Intl, KY, US

Issued at 1140 UTC 21 Jan 2018
Updated at 1428 UTC 21 Jan 2018
Potential Impact None Slight Moderate High
Time1352Z 21/15Z 21/16Z 21/17Z 21/18Z 21/19Z 21/20Z 21/21Z 21/22Z 21/23Z 22/00Z 22/01Z 22/02Z 22/03Z>>
Type OBS PRVL PRVL PRVL PRVL PRVL PRVL PRVL PRVL PRVL PRVL PRVL PRVL PRVL
VIS 10 >6 >6 >6 >6 >6 >6 >6 >6 >6 >6 >6 >6 >6
CIG 20 25 25 25 25 25 10 10 10 10 10 10 10 100
Cover OVC BKN BKN BKN BKN BKN OVC OVC OVC OVC OVC OVC OVC OVC
FltCat MVFR MVFR MVFR MVFR MVFR MVFR MVFR MVFR MVFR MVFR MVFR MVFR MVFR VFR
WX -- -- -- -- -- -- -- -- -- -- -- -- -- VCSH
WDir 190 200 200 200 200 200 170 170 170 170 170 170 170 170
WSpd 7 9 9 9 9 9 6 6 6 6 6 6 6 6
WGst -- -- -- -- -- -- -- -- -- -- -- -- -- --

Raw TAF
KCVG 211140Z 2112/2218 19005KT P6SM SCT030 OVC050
  FM211500 20009KT P6SM BKN025
  FM212000 17006KT P6SM BKN010 OVC030
  FM220300 17006KT P6SM VCSH SCT025 BKN100 OVC250
  FM220600 18006KT P6SM SCT025 BKN100 OVC250 WS013/21040KT
  FM221000 16009KT P6SM BKN100


Raw METAR
KCVG 211352Z 19007KT 10SM BKN020 OVC025 09/05 A3010 RMK AO2 SLP193 T00940050 $
KCVG 211252Z 19007KT 10SM BKN023 OVC065 08/04 A3010 RMK AO2 SLP191 T00830044 $
KCVG 211152Z 18005KT 10SM BKN030 OVC065 08/04 A3009 RMK AO2 SLP190 T00780039 10089 20067 53002 $

METAR Board
Radar Display
Forecast Discussion

FOR SITUATIONAL AWARENESS. NOT TO BE USED FOR FLIGHT PLANNING PURPOSES.